Time;durP1;ratioP1;P1;durP2;ratioP2;P2;SDS_P1;SDS_P2;PMS_P1;PMS_P2;Temp;Humidity;BMP_temperature;BMP_pressure;BME280_temperature;BME280_humidity;BME280_pressure;Samples;Min_cycle;Max_cycle;Signal;HPM_P1;HPM_P2
2020/12/05 00:00:33;;;;;;;31.63;22.50;;;2.60;98.30;;;;;;5070152;23;20212;-79
2020/12/05 00:02:35;;;;;;;30.70;22.75;;;2.50;98.30;;;;;;5071820;23;20214;-79
2020/12/05 00:04:37;;;;;;;34.10;23.50;;;2.60;98.30;;;;;;5079588;23;20196;-80
2020/12/05 00:06:39;;;;;;;32.08;22.65;;;2.60;98.30;;;;;;5070744;23;20215;-79
2020/12/05 00:08:41;;;;;;;33.90;24.50;;;2.60;98.30;;;;;;5068100;23;20286;-79
2020/12/05 00:10:44;;;;;;;31.50;23.80;;;2.50;98.30;;;;;;5076525;23;20597;-79
2020/12/05 00:12:46;;;;;;;34.70;25.02;;;2.50;98.30;;;;;;5066909;23;20204;-79
2020/12/05 00:14:47;;;;;;;30.20;22.08;;;2.40;98.30;;;;;;5066633;23;20331;-79
2020/12/05 00:16:51;;;;;;;33.03;24.17;;;2.40;98.30;;;;;;5066608;23;20290;-79
2020/12/05 00:18:54;;;;;;;30.80;22.95;;;2.40;98.30;;;;;;5066370;23;20285;-80
2020/12/05 00:20:56;;;;;;;32.67;24.70;;;2.40;98.30;;;;;;5074411;23;20204;-79
2020/12/05 00:22:58;;;;;;;35.78;25.40;;;2.40;98.30;;;;;;5074732;23;20204;-79
2020/12/05 00:25:00;;;;;;;38.10;24.13;;;2.40;98.30;;;;;;5074229;23;20889;-79
2020/12/05 00:27:02;;;;;;;39.63;26.25;;;2.40;98.30;;;;;;5066725;23;20211;-79
2020/12/05 00:29:04;;;;;;;36.58;25.90;;;2.30;98.30;;;;;;5066987;23;20226;-79
2020/12/05 00:31:06;;;;;;;33.65;24.48;;;2.30;98.30;;;;;;5067836;23;20634;-80
2020/12/05 00:33:08;;;;;;;33.97;25.65;;;2.30;98.30;;;;;;5067406;23;20213;-79
2020/12/05 00:35:10;;;;;;;35.78;25.42;;;2.30;98.30;;;;;;5076124;23;20669;-80
2020/12/05 00:37:12;;;;;;;35.25;25.80;;;2.30;98.30;;;;;;5068393;23;20318;-80
2020/12/05 00:39:14;;;;;;;35.42;26.08;;;2.20;98.30;;;;;;5075054;23;20263;-80
2020/12/05 00:41:18;;;;;;;34.88;27.05;;;2.10;98.30;;;;;;5067515;23;20291;-80
2020/12/05 00:43:21;;;;;;;37.10;25.45;;;2.10;98.30;;;;;;5070085;23;20695;-80
2020/12/05 00:45:23;;;;;;;38.78;26.52;;;2.10;98.30;;;;;;5079018;23;20204;-80
2020/12/05 00:47:28;;;;;;;37.58;26.50;;;2.20;98.30;;;;;;5071130;23;20772;-80
2020/12/05 00:49:30;;;;;;;40.08;26.13;;;2.20;98.30;;;;;;5076090;23;20211;-80
2020/12/05 00:51:32;;;;;;;37.67;26.17;;;2.10;98.30;;;;;;5076340;23;20204;-80
2020/12/05 00:53:34;;;;;;;37.80;26.88;;;2.10;98.30;;;;;;5076215;23;20244;-80
2020/12/05 00:55:36;;;;;;;40.30;27.25;;;2.10;98.30;;;;;;5067701;23;20287;-81
2020/12/05 00:57:38;;;;;;;36.70;26.38;;;2.10;98.30;;;;;;5076324;23;20283;-80
2020/12/05 00:59:43;;;;;;;41.60;28.55;;;2.10;98.30;;;;;;5067244;23;20214;-79
2020/12/05 01:01:45;;;;;;;39.30;26.55;;;2.10;98.30;;;;;;5067600;23;20208;-80
2020/12/05 01:03:47;;;;;;;39.40;26.95;;;2.10;98.30;;;;;;5067468;23;20264;-80
2020/12/05 01:05:48;;;;;;;37.58;28.30;;;2.10;98.30;;;;;;5068205;23;20315;-80
2020/12/05 01:07:50;;;;;;;38.13;28.33;;;2.10;98.30;;;;;;5075852;23;20290;-80
2020/12/05 01:09:53;;;;;;;39.58;27.38;;;2.10;98.30;;;;;;5075338;23;20207;-80
2020/12/05 01:11:55;;;;;;;38.05;27.05;;;2.10;98.30;;;;;;5067308;23;20765;-81
2020/12/05 01:13:56;;;;;;;38.25;27.42;;;2.10;98.30;;;;;;5076008;23;20231;-80
2020/12/05 01:15:59;;;;;;;38.83;27.90;;;2.10;98.30;;;;;;5067448;23;20252;-81
2020/12/05 01:18:01;;;;;;;40.17;27.42;;;2.00;98.30;;;;;;5075119;23;20220;-80
2020/12/05 01:20:04;;;;;;;38.83;26.88;;;2.00;98.30;;;;;;5073754;23;20234;-80
2020/12/05 01:22:05;;;;;;;40.38;29.38;;;2.00;98.30;;;;;;5065882;23;20283;-80
2020/12/05 01:24:07;;;;;;;43.08;28.35;;;2.00;98.30;;;;;;5074189;23;20200;-80
2020/12/05 01:26:10;;;;;;;39.90;28.70;;;2.00;98.30;;;;;;5067604;23;20224;-80
2020/12/05 01:28:12;;;;;;;39.42;28.73;;;2.00;98.30;;;;;;5066701;23;20204;-80
2020/12/05 01:30:13;;;;;;;38.20;26.50;;;1.90;98.30;;;;;;5076039;23;20501;-79
2020/12/05 01:32:16;;;;;;;39.05;26.55;;;1.90;98.30;;;;;;5067640;23;20243;-80
2020/12/05 01:34:18;;;;;;;39.85;28.40;;;1.90;98.30;;;;;;5067485;23;20283;-79
2020/12/05 01:36:20;;;;;;;44.22;29.42;;;2.00;98.30;;;;;;5069562;23;20536;-80
2020/12/05 01:38:22;;;;;;;40.50;30.30;;;2.00;98.30;;;;;;5068891;23;20239;-81
2020/12/05 01:40:24;;;;;;;44.47;29.95;;;2.00;98.30;;;;;;5070239;23;20544;-81
2020/12/05 01:42:25;;;;;;;42.42;30.52;;;2.10;98.30;;;;;;5070365;23;20231;-81
2020/12/05 01:44:28;;;;;;;42.67;30.25;;;2.00;98.30;;;;;;5078566;23;20219;-81
2020/12/05 01:46:37;;;;;;;41.72;30.38;;;1.90;98.30;;;;;;5075271;23;20219;-79
2020/12/05 01:48:40;;;;;;;41.97;30.17;;;1.90;98.30;;;;;;5083705;23;20204;-80
2020/12/05 01:50:42;;;;;;;44.85;31.75;;;1.80;98.30;;;;;;5070582;23;20247;-80
2020/12/05 01:52:44;;;;;;;47.63;30.60;;;1.90;98.30;;;;;;5070159;23;20218;-80
2020/12/05 01:54:47;;;;;;;37.80;27.88;;;1.70;98.30;;;;;;5078375;23;20283;-80
2020/12/05 01:56:57;;;;;;;40.22;30.23;;;1.80;98.30;;;;;;5083397;23;20208;-79
2020/12/05 01:58:59;;;;;;;43.10;32.70;;;1.80;98.30;;;;;;5076344;23;20215;-79
2020/12/05 02:01:01;;;;;;;40.20;30.00;;;1.80;98.30;;;;;;5077425;23;20282;-80
2020/12/05 02:03:03;;;;;;;41.05;30.15;;;1.90;98.30;;;;;;5078375;23;20215;-80
2020/12/05 02:05:17;;;;;;;40.17;29.80;;;1.80;98.30;;;;;;5068940;23;20210;-80
2020/12/05 02:07:33;;;;;;;47.30;31.95;;;1.80;98.30;;;;;;5069160;23;20208;-80
2020/12/05 02:09:40;;;;;;;47.63;32.33;;;1.90;98.30;;;;;;5069044;23;20210;-80
2020/12/05 02:12:00;;;;;;;46.60;32.85;;;1.90;98.30;;;;;;5068492;23;20208;-80
2020/12/05 02:14:05;;;;;;;44.70;30.45;;;1.90;98.30;;;;;;5069148;23;20242;-80
2020/12/05 02:16:07;;;;;;;45.15;30.23;;;2.00;98.30;;;;;;5076865;23;20684;-80
2020/12/05 02:18:10;;;;;;;37.83;27.75;;;1.90;98.30;;;;;;5067751;23;20219;-80
2020/12/05 02:20:13;;;;;;;41.55;29.23;;;1.90;98.30;;;;;;5075788;23;20546;-80
2020/12/05 02:22:25;;;;;;;42.58;30.90;;;1.90;98.30;;;;;;5075753;23;20700;-80
2020/12/05 02:24:27;;;;;;;43.25;29.63;;;1.90;98.30;;;;;;5075362;23;20203;-79
2020/12/05 02:26:31;;;;;;;44.70;30.83;;;1.90;98.30;;;;;;5068586;23;20208;-79
2020/12/05 02:28:34;;;;;;;44.05;32.75;;;1.90;98.30;;;;;;5075972;23;20832;-80
2020/12/05 02:30:36;;;;;;;43.05;31.27;;;1.90;98.30;;;;;;5068348;23;20216;-79
2020/12/05 02:32:38;;;;;;;44.55;31.75;;;1.90;98.30;;;;;;5068070;23;20290;-80
2020/12/05 02:34:40;;;;;;;42.75;30.48;;;1.90;98.30;;;;;;5068051;23;20236;-79
2020/12/05 02:36:43;;;;;;;42.78;30.70;;;1.80;98.30;;;;;;5069294;23;20212;-79
2020/12/05 02:38:55;;;;;;;45.40;30.30;;;1.70;98.30;;;;;;5075632;23;20248;-80
2020/12/05 02:40:58;;;;;;;43.72;32.20;;;1.80;98.30;;;;;;5068605;23;20239;-80
2020/12/05 02:43:00;;;;;;;45.25;31.83;;;1.90;98.30;;;;;;5069111;23;20208;-80
2020/12/05 02:45:02;;;;;;;53.45;34.95;;;1.90;98.30;;;;;;5069106;23;20760;-79
2020/12/05 02:47:04;;;;;;;47.10;32.33;;;1.80;98.30;;;;;;5067819;23;20675;-80
2020/12/05 02:49:06;;;;;;;46.53;31.52;;;1.80;98.30;;;;;;5068869;23;20207;-79
2020/12/05 02:51:08;;;;;;;42.45;30.70;;;1.80;98.30;;;;;;5076426;23;20660;-80
2020/12/05 02:53:10;;;;;;;48.55;33.83;;;1.80;98.30;;;;;;5068584;23;20541;-79
2020/12/05 02:55:12;;;;;;;49.17;32.78;;;1.80;98.30;;;;;;5077763;23;20208;-80
2020/12/05 02:57:14;;;;;;;45.65;31.88;;;1.80;98.30;;;;;;5068453;23;20287;-80
2020/12/05 02:59:16;;;;;;;43.65;30.90;;;1.70;98.30;;;;;;5068081;23;20212;-80
2020/12/05 03:01:18;;;;;;;43.70;30.67;;;1.70;98.30;;;;;;5067920;23;20943;-79
2020/12/05 03:03:20;;;;;;;43.20;30.80;;;1.70;98.30;;;;;;5067966;23;20954;-79
2020/12/05 03:05:22;;;;;;;43.80;31.38;;;1.70;98.30;;;;;;5082896;23;20212;-79
2020/12/05 03:07:24;;;;;;;45.25;32.58;;;1.80;98.30;;;;;;5076744;23;20743;-79
2020/12/05 03:09:26;;;;;;;49.85;34.50;;;1.70;98.30;;;;;;5068366;23;20211;-79
2020/12/05 03:11:28;;;;;;;49.20;32.95;;;1.70;98.30;;;;;;5068681;23;20218;-79
2020/12/05 03:13:31;;;;;;;44.90;33.22;;;1.70;98.30;;;;;;5076611;23;20283;-80
2020/12/05 03:15:33;;;;;;;43.30;32.05;;;1.70;98.30;;;;;;5068451;23;20251;-79
2020/12/05 03:17:35;;;;;;;46.17;31.52;;;1.80;98.30;;;;;;5067627;23;20204;-79
2020/12/05 03:19:37;;;;;;;42.63;32.08;;;1.80;98.30;;;;;;5067789;23;20683;-79
2020/12/05 03:21:39;;;;;;;47.42;32.70;;;1.70;98.30;;;;;;5068226;23;20228;-80
2020/12/05 03:23:45;;;;;;;49.72;34.75;;;1.70;98.30;;;;;;5068092;23;20208;-79
2020/12/05 03:25:47;;;;;;;45.80;32.60;;;1.70;98.30;;;;;;5068056;23;20208;-80
2020/12/05 03:27:49;;;;;;;50.33;33.10;;;1.70;98.30;;;;;;5068149;23;20219;-79
2020/12/05 03:29:52;;;;;;;45.60;32.80;;;1.70;98.30;;;;;;5076711;23;20204;-79
2020/12/05 03:31:56;;;;;;;44.28;31.52;;;1.70;98.30;;;;;;5066957;23;20208;-80
2020/12/05 03:33:59;;;;;;;49.67;33.60;;;1.70;98.30;;;;;;5067831;23;20216;-79
2020/12/05 03:36:01;;;;;;;51.67;35.30;;;1.60;98.30;;;;;;5069024;23;20239;-80
2020/12/05 03:38:03;;;;;;;47.20;32.28;;;1.50;98.30;;;;;;5076124;23;20204;-81
2020/12/05 03:40:06;;;;;;;47.13;33.53;;;1.50;98.30;;;;;;5076934;23;20723;-80
2020/12/05 03:42:08;;;;;;;48.30;33.42;;;1.60;98.30;;;;;;5076830;23;20211;-80
2020/12/05 03:44:10;;;;;;;50.70;35.63;;;1.60;98.30;;;;;;5069482;23;20231;-80
2020/12/05 03:46:13;;;;;;;48.78;33.35;;;1.60;98.30;;;;;;5076869;23;20224;-81
2020/12/05 03:48:15;;;;;;;47.80;33.90;;;1.70;98.30;;;;;;5076463;23;20283;-80
2020/12/05 03:50:17;;;;;;;50.88;36.28;;;1.70;98.30;;;;;;5076047;23;20970;-80
2020/12/05 03:52:19;;;;;;;53.47;33.97;;;1.70;98.30;;;;;;5068013;23;20294;-79
2020/12/05 03:54:21;;;;;;;53.08;35.30;;;1.70;98.30;;;;;;5077282;23;20535;-79
2020/12/05 03:56:23;;;;;;;47.05;34.75;;;1.60;98.30;;;;;;5077265;23;20226;-79
2020/12/05 03:58:25;;;;;;;51.67;34.95;;;1.70;98.30;;;;;;5069325;23;20272;-79
2020/12/05 04:00:27;;;;;;;50.20;33.13;;;1.70;98.30;;;;;;5068920;23;20208;-80
2020/12/05 04:02:30;;;;;;;49.60;33.78;;;1.70;98.30;;;;;;5069080;23;20212;-80
2020/12/05 04:04:32;;;;;;;46.42;33.42;;;1.70;98.30;;;;;;5068803;23;20286;-80
2020/12/05 04:06:35;;;;;;;50.83;32.58;;;1.70;98.30;;;;;;5077299;23;20228;-80
2020/12/05 04:08:37;;;;;;;51.03;35.05;;;1.80;98.30;;;;;;5079900;23;20204;-80
2020/12/05 04:10:38;;;;;;;45.95;33.75;;;1.80;98.30;;;;;;5074608;23;20215;-80
2020/12/05 04:12:40;;;;;;;49.10;35.67;;;1.80;98.30;;;;;;5068164;23;20232;-80
2020/12/05 04:14:43;;;;;;;50.03;34.85;;;1.80;98.30;;;;;;5076323;23;20207;-80
2020/12/05 04:16:45;;;;;;;45.25;34.45;;;1.80;98.30;;;;;;5068204;23;20220;-80
2020/12/05 04:18:49;;;;;;;45.08;31.90;;;1.70;98.30;;;;;;5068033;23;20220;-80
2020/12/05 04:20:50;;;;;;;47.53;33.38;;;1.70;98.30;;;;;;5075755;23;20219;-80
2020/12/05 04:22:54;;;;;;;49.70;31.63;;;1.80;98.30;;;;;;5068050;23;20212;-80
2020/12/05 04:24:56;;;;;;;47.92;33.85;;;1.90;98.30;;;;;;5068249;23;20215;-79
2020/12/05 04:26:58;;;;;;;48.17;31.45;;;1.90;98.30;;;;;;5068099;23;20263;-80
2020/12/05 04:29:00;;;;;;;49.92;32.92;;;1.90;98.30;;;;;;5067847;23;20714;-80
2020/12/05 04:31:03;;;;;;;46.85;34.10;;;1.90;98.30;;;;;;5068203;23;20997;-80
2020/12/05 04:33:05;;;;;;;49.75;33.58;;;1.90;98.30;;;;;;5077082;23;20540;-79
2020/12/05 04:35:08;;;;;;;48.95;33.28;;;1.90;98.30;;;;;;5078294;23;20200;-80
2020/12/05 04:37:10;;;;;;;50.97;34.45;;;1.90;98.30;;;;;;5069603;23;20208;-79
2020/12/05 04:39:12;;;;;;;47.30;35.28;;;2.00;98.30;;;;;;5068800;23;20218;-81
2020/12/05 04:41:14;;;;;;;56.35;38.25;;;2.00;98.30;;;;;;5068853;23;20735;-79
2020/12/05 04:43:17;;;;;;;46.90;32.15;;;2.00;98.30;;;;;;5068940;23;20309;-80
2020/12/05 04:45:18;;;;;;;46.40;31.88;;;2.00;98.30;;;;;;5069086;23;20236;-80
2020/12/05 04:47:20;;;;;;;52.88;34.35;;;2.00;98.30;;;;;;5077593;23;20215;-79
2020/12/05 04:49:26;;;;;;;48.53;33.13;;;2.00;98.30;;;;;;5077109;23;20208;-79
2020/12/05 04:51:37;;;;;;;54.03;34.85;;;2.00;98.30;;;;;;5066760;23;20655;-80
2020/12/05 04:53:39;;;;;;;47.20;33.22;;;2.10;98.30;;;;;;5074542;23;20286;-79
2020/12/05 04:55:42;;;;;;;48.78;34.40;;;2.00;98.30;;;;;;5074205;23;20208;-79
2020/12/05 04:57:46;;;;;;;51.83;34.45;;;2.00;98.30;;;;;;5074569;23;20263;-79
2020/12/05 04:59:48;;;;;;;49.67;32.90;;;1.90;98.30;;;;;;5067905;23;20712;-79
2020/12/05 05:01:53;;;;;;;51.63;33.22;;;1.90;98.30;;;;;;5068349;23;20208;-79
2020/12/05 05:03:55;;;;;;;48.30;33.10;;;1.80;98.30;;;;;;5067651;23;20208;-79
2020/12/05 05:05:58;;;;;;;51.45;35.15;;;1.90;98.30;;;;;;5068773;23;20287;-80
2020/12/05 05:08:00;;;;;;;51.22;34.30;;;1.90;98.30;;;;;;5079250;23;20235;-80
2020/12/05 05:10:10;;;;;;;47.25;30.90;;;1.90;98.30;;;;;;5079099;23;20259;-79
2020/12/05 05:12:24;;;;;;;46.65;32.03;;;2.00;98.30;;;;;;5070859;23;20214;-80
2020/12/05 05:14:33;;;;;;;49.28;33.22;;;2.00;98.30;;;;;;5070641;23;20226;-79
2020/12/05 05:16:35;;;;;;;48.92;34.53;;;2.10;98.30;;;;;;5083606;23;20211;-79
2020/12/05 05:18:37;;;;;;;48.30;32.25;;;2.10;98.30;;;;;;5076397;23;20203;-80
2020/12/05 05:20:42;;;;;;;50.38;33.72;;;2.10;98.30;;;;;;5076105;23;20222;-80
2020/12/05 05:22:43;;;;;;;48.53;32.13;;;2.20;98.30;;;;;;5076818;23;20685;-79
2020/12/05 05:25:00;;;;;;;43.78;31.70;;;2.20;98.30;;;;;;5068177;23;20279;-80
2020/12/05 05:27:05;;;;;;;48.65;33.25;;;2.20;98.30;;;;;;5068618;23;20962;-80
2020/12/05 05:29:23;;;;;;;52.47;33.97;;;2.20;98.30;;;;;;5068482;23;20602;-79
2020/12/05 05:31:30;;;;;;;48.78;35.08;;;2.20;98.30;;;;;;5077151;23;20660;-79
2020/12/05 05:33:39;;;;;;;54.38;34.53;;;2.20;98.30;;;;;;5076821;23;20221;-80
2020/12/05 05:35:41;;;;;;;65.93;45.75;;;2.20;98.30;;;;;;5069320;23;20706;-79
2020/12/05 05:37:44;;;;;;;81.82;50.17;;;2.20;98.30;;;;;;5067963;23;20212;-79
2020/12/05 05:39:50;;;;;;;61.15;39.92;;;2.20;98.30;;;;;;5068628;23;20208;-80
2020/12/05 05:41:55;;;;;;;52.63;33.20;;;2.20;98.30;;;;;;5076670;23;20672;-79
2020/12/05 05:43:59;;;;;;;48.80;32.75;;;2.30;98.30;;;;;;5068574;23;20211;-79
2020/12/05 05:46:01;;;;;;;49.25;32.70;;;2.20;98.30;;;;;;5069060;23;20804;-80
2020/12/05 05:48:04;;;;;;;49.78;32.80;;;2.30;98.30;;;;;;5069982;23;20246;-80
2020/12/05 05:50:19;;;;;;;46.15;32.97;;;2.30;98.30;;;;;;5070653;23;20204;-80
2020/12/05 05:52:21;;;;;;;47.08;32.42;;;2.40;98.30;;;;;;5070713;23;20282;-81
2020/12/05 05:54:25;;;;;;;47.30;33.38;;;2.30;98.30;;;;;;5077714;23;20299;-80
2020/12/05 05:56:28;;;;;;;50.03;34.22;;;2.30;98.30;;;;;;5077391;23;20204;-80
2020/12/05 05:58:31;;;;;;;46.97;32.72;;;2.30;98.30;;;;;;5078990;23;20667;-80
2020/12/05 06:00:37;;;;;;;51.83;33.70;;;2.30;98.30;;;;;;5071432;23;20231;-80
2020/12/05 06:02:40;;;;;;;48.35;33.85;;;2.20;98.30;;;;;;5071087;23;20215;-80
2020/12/05 06:04:43;;;;;;;49.20;34.40;;;2.20;98.30;;;;;;5077756;23;20212;-81
2020/12/05 06:06:47;;;;;;;48.42;33.53;;;2.20;98.30;;;;;;5071499;23;20291;-80
2020/12/05 06:08:50;;;;;;;51.63;34.47;;;2.20;98.30;;;;;;5069446;23;20208;-81
2020/12/05 06:10:57;;;;;;;49.13;33.95;;;2.20;98.30;;;;;;5077955;23;20209;-80
2020/12/05 06:13:00;;;;;;;47.60;33.47;;;2.10;98.30;;;;;;5070573;23;20250;-81
2020/12/05 06:15:05;;;;;;;51.30;31.75;;;2.10;98.30;;;;;;5078251;23;20204;-80
2020/12/05 06:17:08;;;;;;;50.13;32.63;;;2.10;98.30;;;;;;5068659;23;20287;-81
2020/12/05 06:19:13;;;;;;;51.88;33.00;;;2.10;98.30;;;;;;5077865;23;20215;-81
2020/12/05 06:21:15;;;;;;;47.40;32.72;;;2.10;98.30;;;;;;5077826;23;20288;-81
2020/12/05 06:23:27;;;;;;;47.78;31.35;;;2.10;98.30;;;;;;5073541;23;20680;-80
2020/12/05 06:25:30;;;;;;;46.60;33.22;;;2.10;98.30;;;;;;5068765;23;20212;-81
2020/12/05 06:27:35;;;;;;;51.35;33.50;;;2.10;98.30;;;;;;5070191;23;20239;-81
2020/12/05 06:29:39;;;;;;;47.97;33.67;;;2.10;98.30;;;;;;5074324;23;20263;-81
2020/12/05 06:31:43;;;;;;;48.67;33.75;;;2.20;98.30;;;;;;5077800;23;20207;-80
2020/12/05 06:33:45;;;;;;;48.47;32.97;;;2.10;98.30;;;;;;5068789;23;20213;-81
2020/12/05 06:35:47;;;;;;;49.70;33.88;;;2.10;98.30;;;;;;5076661;23;20307;-81
2020/12/05 06:37:52;;;;;;;50.45;33.67;;;2.20;98.30;;;;;;5075384;23;20532;-81
2020/12/05 06:40:00;;;;;;;49.58;33.13;;;2.20;98.30;;;;;;5068218;23;20212;-81
2020/12/05 06:42:02;;;;;;;62.88;39.28;;;2.10;98.30;;;;;;5076126;23;20691;-81
2020/12/05 06:44:13;;;;;;;48.10;34.53;;;2.20;98.30;;;;;;5076697;23;20687;-80
2020/12/05 06:46:52;;;;;;;54.92;34.40;;;2.10;98.30;;;;;;5067921;23;20212;-81
2020/12/05 06:48:54;;;;;;;52.55;33.70;;;2.10;98.30;;;;;;5068375;23;20291;-81
2020/12/05 06:50:55;;;;;;;47.13;34.60;;;2.20;98.30;;;;;;5068351;23;20545;-81
2020/12/05 06:52:57;;;;;;;51.60;33.30;;;2.20;98.30;;;;;;5068076;23;20287;-81
2020/12/05 06:55:01;;;;;;;49.20;34.33;;;2.20;98.30;;;;;;5068454;23;20208;-81
2020/12/05 06:57:22;;;;;;;53.63;35.40;;;2.10;98.30;;;;;;5067947;23;20212;-80
2020/12/05 06:59:25;;;;;;;53.42;34.63;;;2.20;98.30;;;;;;5067685;23;20267;-81
2020/12/05 07:01:29;;;;;;;75.28;46.38;;;2.10;98.30;;;;;;5076006;23;20200;-81
2020/12/05 07:03:32;;;;;;;77.55;47.53;;;2.10;98.30;;;;;;5067940;23;20231;-81
2020/12/05 07:05:37;;;;;;;50.78;35.78;;;2.10;98.30;;;;;;5076411;23;20259;-80
2020/12/05 07:07:39;;;;;;;53.55;33.97;;;2.10;98.30;;;;;;5078139;23;20589;-81
2020/12/05 07:09:50;;;;;;;49.75;33.45;;;2.00;98.30;;;;;;5067419;23;20247;-80
2020/12/05 07:12:17;;;;;;;51.70;33.72;;;2.00;98.30;;;;;;5075245;23;20280;-80
2020/12/05 07:14:26;;;;;;;52.35;35.58;;;2.00;98.30;;;;;;5066698;23;20208;-81
2020/12/05 07:16:30;;;;;;;50.65;34.78;;;2.00;98.30;;;;;;5067378;23;20280;-80
2020/12/05 07:18:32;;;;;;;56.90;37.67;;;2.10;98.30;;;;;;5068748;23;20224;-81
2020/12/05 07:20:35;;;;;;;51.63;35.50;;;2.10;98.30;;;;;;5068271;23;20566;-80
2020/12/05 07:22:37;;;;;;;54.47;37.95;;;2.10;98.30;;;;;;5075851;23;20291;-81
2020/12/05 07:24:39;;;;;;;53.65;34.85;;;2.20;98.30;;;;;;5068534;23;20248;-80
2020/12/05 07:26:41;;;;;;;58.20;37.03;;;2.10;98.30;;;;;;5068505;23;20204;-81
2020/12/05 07:28:48;;;;;;;51.15;35.97;;;2.10;98.30;;;;;;5075910;23;20227;-81
2020/12/05 07:30:51;;;;;;;55.40;34.70;;;2.10;98.30;;;;;;5075762;23;20212;-80
2020/12/05 07:32:53;;;;;;;56.22;35.00;;;2.20;98.30;;;;;;5067409;23;20208;-80
2020/12/05 07:34:55;;;;;;;53.72;35.88;;;2.10;98.30;;;;;;5067387;23;20208;-81
2020/12/05 07:36:57;;;;;;;52.38;36.53;;;2.20;98.30;;;;;;5067663;23;20534;-81
2020/12/05 07:39:03;;;;;;;56.95;36.65;;;2.20;98.30;;;;;;5066918;23;20214;-80
2020/12/05 07:41:09;;;;;;;54.22;35.03;;;2.10;98.30;;;;;;5075735;23;20213;-80
2020/12/05 07:43:18;;;;;;;55.85;36.85;;;2.10;98.30;;;;;;5075739;23;20736;-80
2020/12/05 07:45:21;;;;;;;54.47;37.92;;;2.10;98.30;;;;;;5075976;23;20204;-80
2020/12/05 07:47:23;;;;;;;56.42;37.15;;;2.00;98.30;;;;;;5075220;23;20291;-81
2020/12/05 07:49:24;;;;;;;49.38;35.95;;;2.10;98.30;;;;;;5068088;23;20204;-80
2020/12/05 07:51:28;;;;;;;56.70;36.42;;;2.10;98.30;;;;;;5067389;23;20709;-81
2020/12/05 07:53:32;;;;;;;55.63;37.15;;;2.10;98.30;;;;;;5067669;23;20212;-80
2020/12/05 07:55:34;;;;;;;55.83;37.08;;;2.10;98.30;;;;;;5075513;23;20254;-81
2020/12/05 07:57:38;;;;;;;56.58;39.30;;;2.10;98.30;;;;;;5067850;23;20694;-81
2020/12/05 07:59:39;;;;;;;57.60;38.05;;;2.10;98.30;;;;;;5075500;23;20885;-81
2020/12/05 08:02:05;;;;;;;59.75;36.42;;;2.10;98.30;;;;;;5075637;23;20200;-81
2020/12/05 08:04:41;;;;;;;55.88;34.95;;;2.10;98.30;;;;;;5067337;23;20292;-81
2020/12/05 08:06:54;;;;;;;50.03;36.10;;;2.20;98.30;;;;;;5068448;23;20262;-80
2020/12/05 08:09:03;;;;;;;49.30;32.78;;;2.20;98.30;;;;;;5075861;23;20204;-81
2020/12/05 08:11:05;;;;;;;49.25;32.97;;;2.20;98.30;;;;;;5068116;23;20208;-81
2020/12/05 08:13:26;;;;;;;51.08;35.00;;;2.20;98.30;;;;;;5067617;23;20243;-81
2020/12/05 08:15:30;;;;;;;50.97;34.05;;;2.20;98.30;;;;;;5076191;23;20219;-80
2020/12/05 08:17:37;;;;;;;50.25;34.60;;;2.20;98.30;;;;;;5068081;23;20227;-81
2020/12/05 08:19:41;;;;;;;49.50;33.83;;;2.20;98.30;;;;;;5076521;23;20665;-80
2020/12/05 08:21:43;;;;;;;50.78;34.95;;;2.20;98.30;;;;;;5067731;23;20291;-80
2020/12/05 08:24:05;;;;;;;50.33;33.53;;;2.20;98.30;;;;;;5067116;23;20208;-81
2020/12/05 08:26:12;;;;;;;51.22;32.78;;;2.20;98.30;;;;;;5075091;23;20204;-81
2020/12/05 08:28:14;;;;;;;49.40;34.45;;;2.20;98.30;;;;;;5074931;23;20215;-80
2020/12/05 08:30:17;;;;;;;49.28;34.17;;;2.30;98.30;;;;;;5074893;23;20653;-81
2020/12/05 08:32:20;;;;;;;48.40;33.20;;;2.30;98.30;;;;;;5074711;23;20204;-81
2020/12/05 08:34:29;;;;;;;52.00;34.13;;;2.40;98.30;;;;;;5066598;23;20219;-80
2020/12/05 08:36:34;;;;;;;47.33;32.75;;;2.40;98.30;;;;;;5066579;23;20723;-80
2020/12/05 08:38:40;;;;;;;53.42;33.85;;;2.40;98.30;;;;;;5075416;23;20200;-80
2020/12/05 08:40:43;;;;;;;51.75;32.58;;;2.40;98.30;;;;;;5076383;23;20294;-81
2020/12/05 08:42:48;;;;;;;48.10;32.72;;;2.40;98.30;;;;;;5068597;23;20595;-81
2020/12/05 08:44:51;;;;;;;49.03;31.17;;;2.60;98.30;;;;;;5077287;23;20208;-81
2020/12/05 08:47:00;;;;;;;51.50;34.08;;;2.60;98.30;;;;;;5067934;23;20210;-80
2020/12/05 08:49:14;;;;;;;50.15;32.33;;;2.50;98.30;;;;;;5080077;23;20203;-80
2020/12/05 08:51:16;;;;;;;50.70;33.17;;;2.50;98.30;;;;;;5072152;23;20208;-80
2020/12/05 08:53:21;;;;;;;49.55;30.58;;;2.50;98.30;;;;;;5067434;23;20218;-80
2020/12/05 08:55:25;;;;;;;49.38;33.85;;;2.50;98.30;;;;;;5066585;23;20291;-80
2020/12/05 08:57:28;;;;;;;50.13;31.90;;;2.60;98.30;;;;;;5066701;23;20203;-80
2020/12/05 08:59:29;;;;;;;53.78;33.05;;;2.60;98.30;;;;;;5066567;23;20287;-80
2020/12/05 09:01:38;;;;;;;49.38;34.40;;;2.50;98.30;;;;;;5067013;23;20684;-81
2020/12/05 09:03:41;;;;;;;50.90;34.30;;;2.50;98.30;;;;;;5075782;23;20212;-81
2020/12/05 09:05:45;;;;;;;52.30;34.53;;;2.60;98.30;;;;;;5074447;23;20208;-81
2020/12/05 09:07:55;;;;;;;46.00;32.90;;;2.50;98.30;;;;;;5067054;23;20287;-82
2020/12/05 09:09:57;;;;;;;46.92;31.65;;;2.50;98.30;;;;;;5075302;23;20200;-81
2020/12/05 09:12:03;;;;;;;47.03;32.63;;;2.40;98.30;;;;;;5067239;23;20270;-80
2020/12/05 09:14:09;;;;;;;48.67;33.35;;;2.50;98.30;;;;;;5074952;23;20255;-81
2020/12/05 09:16:11;;;;;;;50.05;32.83;;;2.50;98.30;;;;;;5066676;23;20282;-80
2020/12/05 09:18:13;;;;;;;48.50;32.95;;;2.60;98.30;;;;;;5074246;23;20239;-80
2020/12/05 09:20:17;;;;;;;49.65;32.58;;;2.50;98.30;;;;;;5075243;23;20218;-80
2020/12/05 09:22:30;;;;;;;48.50;33.22;;;2.50;98.30;;;;;;5075034;23;20204;-80
2020/12/05 09:24:42;;;;;;;49.33;32.30;;;2.60;98.30;;;;;;5075031;23;20279;-80
2020/12/05 09:26:52;;;;;;;49.72;32.25;;;2.60;98.30;;;;;;5075348;23;20208;-81
2020/12/05 09:28:56;;;;;;;54.45;34.28;;;2.60;98.30;;;;;;5075231;23;20200;-80
2020/12/05 09:31:01;;;;;;;50.95;33.67;;;2.60;98.30;;;;;;5075938;23;20200;-81
2020/12/05 09:33:09;;;;;;;47.80;33.05;;;2.60;98.30;;;;;;5075509;23;20291;-80
2020/12/05 09:35:12;;;;;;;52.63;35.90;;;2.50;98.30;;;;;;5066947;23;20218;-80
2020/12/05 09:37:14;;;;;;;48.75;33.88;;;2.50;98.30;;;;;;5067268;23;20290;-80
2020/12/05 09:39:16;;;;;;;48.70;34.30;;;2.50;98.30;;;;;;5074182;23;20283;-80
2020/12/05 09:41:18;;;;;;;51.40;34.83;;;2.60;98.30;;;;;;5066513;23;20216;-80
2020/12/05 09:43:20;;;;;;;53.72;33.95;;;2.60;98.30;;;;;;5067039;23;20208;-78
2020/12/05 09:45:22;;;;;;;50.95;36.63;;;2.70;98.30;;;;;;5075453;23;20208;-80
2020/12/05 09:47:25;;;;;;;49.65;34.33;;;2.70;98.30;;;;;;5073821;23;20208;-80
2020/12/05 09:49:28;;;;;;;55.58;34.38;;;2.60;98.30;;;;;;5078743;23;20231;-79
2020/12/05 09:51:30;;;;;;;53.53;33.10;;;2.60;98.30;;;;;;5072967;23;20219;-80
2020/12/05 09:53:32;;;;;;;51.33;32.53;;;2.70;98.30;;;;;;5080574;23;20208;-79
2020/12/05 09:55:34;;;;;;;48.50;32.63;;;2.70;98.30;;;;;;5082431;23;20216;-79
2020/12/05 09:57:36;;;;;;;52.75;35.55;;;2.60;98.30;;;;;;5081631;23;20234;-80
2020/12/05 09:59:38;;;;;;;51.65;33.05;;;2.50;98.30;;;;;;5080819;23;20235;-80
2020/12/05 10:01:40;;;;;;;52.33;33.67;;;2.60;98.30;;;;;;5080285;23;20242;-80
2020/12/05 10:03:43;;;;;;;53.00;34.35;;;2.60;98.30;;;;;;5077342;23;20297;-80
2020/12/05 10:05:45;;;;;;;50.63;33.75;;;2.60;98.30;;;;;;5077550;23;20200;-80
2020/12/05 10:07:47;;;;;;;55.45;34.28;;;2.50;98.30;;;;;;5069140;23;20833;-80
2020/12/05 10:09:49;;;;;;;54.53;34.55;;;2.60;98.30;;;;;;5077115;23;20232;-80
2020/12/05 10:11:51;;;;;;;53.97;35.53;;;2.50;98.30;;;;;;5077627;23;20204;-79
2020/12/05 10:13:53;;;;;;;50.67;34.00;;;2.60;98.30;;;;;;5077026;23;20238;-80
2020/12/05 10:15:54;;;;;;;50.65;34.65;;;2.60;98.30;;;;;;5077946;23;20219;-80
2020/12/05 10:17:56;;;;;;;52.75;34.17;;;2.70;98.30;;;;;;5077279;23;20299;-80
2020/12/05 10:19:59;;;;;;;54.08;35.78;;;2.60;98.30;;;;;;5077544;23;20598;-80
2020/12/05 10:22:04;;;;;;;56.33;36.58;;;2.60;98.30;;;;;;5077935;23;20223;-80
2020/12/05 10:24:06;;;;;;;51.75;33.03;;;2.70;98.30;;;;;;5069869;23;20223;-80
2020/12/05 10:26:08;;;;;;;51.33;32.47;;;2.70;98.30;;;;;;5077319;23;20205;-80
2020/12/05 10:28:10;;;;;;;57.22;37.63;;;2.60;98.30;;;;;;5077221;23;20210;-80
2020/12/05 10:30:12;;;;;;;47.28;32.75;;;2.70;98.30;;;;;;5077176;23;20204;-80
2020/12/05 10:32:13;;;;;;;50.58;33.72;;;2.70;98.30;;;;;;5077150;23;20206;-80
2020/12/05 10:34:16;;;;;;;51.03;32.25;;;2.70;98.30;;;;;;5069134;23;20212;-80
2020/12/05 10:36:22;;;;;;;48.97;33.75;;;2.70;98.30;;;;;;5068961;23;20246;-80